Time;durP1;ratioP1;P1;durP2;ratioP2;P2;SDS_P1;SDS_P2;PMS_P1;PMS_P2;Temp;Humidity;BMP_temperature;BMP_pressure;BME280_temperature;BME280_humidity;BME280_pressure;Samples;Min_cycle;Max_cycle;Signal;HPM_P1;HPM_P2
2023/05/05 00:00:59;;;;;;;16.15;10.60;;;;;;;12.97;100.00;98522.78;5054888;28;20184;-63
2023/05/05 00:03:26;;;;;;;13.63;10.38;;;;;;;12.65;100.00;98459.47;5054510;28;20207;-63
2023/05/05 00:05:53;;;;;;;14.18;10.52;;;;;;;12.57;100.00;98448.84;5054818;28;20178;-63
2023/05/05 00:08:19;;;;;;;13.07;10.38;;;;;;;12.55;100.00;98451.53;5054763;28;20181;-63
2023/05/05 00:10:49;;;;;;;15.88;10.20;;;;;;;12.82;100.00;98508.31;5054657;28;20555;-63
2023/05/05 00:13:16;;;;;;;12.57;10.18;;;;;;;12.78;100.00;98499.13;5054971;28;20177;-63
2023/05/05 00:15:43;;;;;;;12.80;9.82;;;;;;;12.88;100.00;98500.06;5054603;28;20170;-63
2023/05/05 00:18:10;;;;;;;10.77;8.75;;;;;;;12.92;100.00;98483.31;5054620;28;20710;-63
2023/05/05 00:20:35;;;;;;;13.48;8.13;;;;;;;13.16;100.00;98505.69;5054541;28;20177;-63
2023/05/05 00:23:01;;;;;;;9.95;8.13;;;;;;;12.88;100.00;98435.16;5053842;28;20279;-63
2023/05/05 00:25:26;;;;;;;9.63;8.52;;;;;;;13.37;100.00;98508.38;5054456;28;20325;-63
2023/05/05 00:27:52;;;;;;;9.68;7.75;;;;;;;13.35;100.00;98505.88;5054390;28;20201;-63
2023/05/05 00:30:17;;;;;;;9.93;7.30;;;;;;;13.41;100.00;98504.59;5054343;28;20641;-63
2023/05/05 00:32:46;;;;;;;11.60;7.63;;;;;;;13.16;100.00;98460.66;5054284;28;20181;-63
2023/05/05 00:35:14;;;;;;;9.20;8.25;;;;;;;13.06;100.00;98447.56;5054219;28;20209;-63
2023/05/05 00:37:40;;;;;;;9.45;7.80;;;;;;;13.22;100.00;98474.03;5054206;28;20174;-63
2023/05/05 00:40:06;;;;;;;10.77;8.85;;;;;;;13.26;100.00;98477.19;5054176;28;20184;-63
2023/05/05 00:42:43;;;;;;;11.75;7.72;;;;;;;13.05;100.00;98419.13;5054340;28;20177;-63
2023/05/05 00:45:10;;;;;;;12.55;9.48;;;;;;;13.09;100.00;98431.75;5054116;28;20256;-63
2023/05/05 00:47:37;;;;;;;10.55;8.07;;;;;;;13.53;100.00;98493.25;5054051;28;20240;-63
2023/05/05 00:50:05;;;;;;;9.88;8.23;;;;;;;13.62;100.00;98508.09;5054229;28;20648;-63
2023/05/05 00:52:31;;;;;;;10.38;8.10;;;;;;;13.40;100.00;98495.97;5053921;28;20181;-63
2023/05/05 00:54:57;;;;;;;8.98;7.90;;;;;;;13.16;100.00;98463.28;5053875;28;20180;-63
2023/05/05 00:57:24;;;;;;;13.20;8.40;;;;;;;12.96;100.00;98438.03;5053840;28;20248;-63
2023/05/05 00:59:50;;;;;;;12.30;8.23;;;;;;;13.14;100.00;98463.41;5054016;28;20209;-63
2023/05/05 01:02:15;;;;;;;10.30;7.43;;;;;;;13.18;100.00;98470.00;5053787;28;20186;-63
2023/05/05 01:04:41;;;;;;;10.05;8.40;;;;;;;13.06;100.00;98454.56;5053645;28;20198;-63
2023/05/05 01:07:09;;;;;;;10.10;7.32;;;;;;;13.43;100.00;98513.09;5053670;28;20621;-63
2023/05/05 01:09:37;;;;;;;10.55;7.97;;;;;;;13.28;100.00;98504.72;5053580;28;20174;-63
2023/05/05 01:12:21;;;;;;;11.32;7.97;;;;;;;13.11;100.00;98506.97;5053612;28;20206;-63
2023/05/05 01:14:57;;;;;;;10.77;8.80;;;;;;;12.67;100.00;98418.66;5053574;28;20177;-63
2023/05/05 01:17:38;;;;;;;9.77;8.00;;;;;;;13.19;100.00;98497.63;5053554;28;20638;-63
2023/05/05 01:20:22;;;;;;;10.73;8.73;;;;;;;13.22;100.00;98505.19;5053503;28;20223;-63
2023/05/05 01:23:00;;;;;;;11.52;8.13;;;;;;;13.22;100.00;98489.63;5053339;28;20248;-63
2023/05/05 01:25:58;;;;;;;11.38;8.52;;;;;;;13.19;100.00;98499.41;5053367;28;20181;-63
2023/05/05 01:29:13;;;;;;;13.18;8.85;;;;;;;13.20;100.00;98495.88;5053353;28;20208;-63
2023/05/05 01:31:52;;;;;;;10.75;8.52;;;;;;;13.13;100.00;98498.09;5050822;28;20212;-63
2023/05/05 01:34:26;;;;;;;8.57;7.68;;;;;;;12.78;100.00;98452.41;5049853;28;20186;-63
2023/05/05 01:37:10;;;;;;;11.35;8.80;;;;;;;12.49;100.00;98407.06;5050686;28;20185;-63
2023/05/05 01:39:37;;;;;;;11.35;8.93;;;;;;;12.70;100.00;98442.59;5050715;28;20177;-63
2023/05/05 01:42:09;;;;;;;9.18;8.05;;;;;;;12.91;100.00;98485.09;5050574;28;20190;-63
2023/05/05 01:44:36;;;;;;;13.10;8.82;;;;;;;12.72;100.00;98463.25;5050498;28;20381;-63
2023/05/05 01:47:04;;;;;;;11.55;8.98;;;;;;;12.78;100.00;98478.38;5050490;28;20705;-63
2023/05/05 01:49:31;;;;;;;13.15;9.50;;;;;;;12.60;100.00;98462.41;5050392;28;20592;-63
2023/05/05 01:51:58;;;;;;;9.73;8.68;;;;;;;12.60;100.00;98454.63;5050410;28;20267;-63
2023/05/05 01:54:25;;;;;;;13.30;8.30;;;;;;;12.81;100.00;98478.13;5050314;28;20186;-63
2023/05/05 01:56:53;;;;;;;13.75;8.65;;;;;;;12.55;100.00;98438.56;5010502;28;20195;-63
2023/05/05 01:59:20;;;;;;;11.38;8.32;;;;;;;12.22;100.00;98385.81;5010351;28;20357;-63
2023/05/05 02:01:47;;;;;;;15.10;9.35;;;;;;;12.37;100.00;98384.66;5010805;28;20237;-63
2023/05/05 02:04:16;;;;;;;8.63;7.72;;;;;;;12.42;100.00;98378.16;5010476;28;20207;-63
2023/05/05 02:06:44;;;;;;;10.13;8.70;;;;;;;12.94;100.00;98450.25;5010458;28;20187;-63
2023/05/05 02:09:11;;;;;;;11.85;8.27;;;;;;;12.85;100.00;98430.22;5028214;28;20190;-63
2023/05/05 02:11:38;;;;;;;10.90;8.75;;;;;;;12.96;100.00;98445.81;5030151;28;20229;-63
2023/05/05 02:14:06;;;;;;;11.15;8.52;;;;;;;12.77;100.00;98406.63;5030107;28;20193;-63
2023/05/05 02:16:32;;;;;;;15.82;8.32;;;;;;;13.12;100.00;98474.88;5030000;28;20194;-63
2023/05/05 02:19:01;;;;;;;9.95;8.43;;;;;;;12.69;100.00;98395.97;5030057;28;20187;-63
2023/05/05 02:21:27;;;;;;;10.75;7.78;;;;;;;12.94;100.00;98438.09;5029846;28;20269;-63
2023/05/05 02:23:53;;;;;;;14.82;8.57;;;;;;;12.51;100.00;98384.41;5029795;28;20314;-63
2023/05/05 02:26:21;;;;;;;10.73;9.18;;;;;;;12.86;100.00;98427.50;5029869;28;20193;-63
2023/05/05 02:28:55;;;;;;;9.20;7.88;;;;;;;13.07;100.00;98471.78;5065181;28;20189;-63
2023/05/05 02:31:25;;;;;;;8.88;7.95;;;;;;;12.98;100.00;98459.50;5069794;28;20238;-63
2023/05/05 02:33:54;;;;;;;10.05;8.60;;;;;;;12.61;100.00;98383.59;5069673;28;20246;-63
2023/05/05 02:36:22;;;;;;;10.82;8.02;;;;;;;13.10;100.00;98462.00;5069616;28;20185;-63
2023/05/05 02:38:53;;;;;;;10.68;8.40;;;;;;;12.99;100.00;98467.19;5069640;28;20177;-63
2023/05/05 02:41:20;;;;;;;11.48;8.35;;;;;;;12.82;100.00;98433.88;5069675;28;20227;-63
2023/05/05 02:43:48;;;;;;;9.70;8.25;;;;;;;12.97;100.00;98473.44;5069476;28;20209;-63
2023/05/05 02:46:14;;;;;;;10.15;8.23;;;;;;;13.02;100.00;98461.75;5069305;28;20235;-63
2023/05/05 02:48:39;;;;;;;11.02;8.77;;;;;;;12.85;100.00;98435.41;5069784;28;20191;-63
2023/05/05 02:51:05;;;;;;;9.45;8.32;;;;;;;12.47;100.00;98376.03;5069492;28;20173;-63
2023/05/05 02:53:31;;;;;;;9.23;8.07;;;;;;;12.81;100.00;98434.81;5052304;28;20195;-63
2023/05/05 02:56:21;;;;;;;11.05;8.63;;;;;;;13.05;100.00;98455.47;5049131;28;20209;-63
2023/05/05 02:59:08;;;;;;;12.07;8.32;;;;;;;13.17;100.00;98470.09;5049250;28;20193;-63
2023/05/05 03:01:46;;;;;;;9.80;8.52;;;;;;;13.20;100.00;98468.13;5049373;28;20268;-63
2023/05/05 03:04:16;;;;;;;10.05;8.20;;;;;;;13.06;100.00;98428.59;5049319;28;20205;-63
2023/05/05 03:06:46;;;;;;;11.35;8.57;;;;;;;13.34;100.00;98465.25;5049335;28;20186;-63
2023/05/05 03:09:20;;;;;;;12.55;8.55;;;;;;;13.48;100.00;98465.00;5049309;28;20188;-63
2023/05/05 03:11:49;;;;;;;10.73;8.27;;;;;;;13.19;100.00;98443.06;5049301;28;20209;-62
2023/05/05 03:14:18;;;;;;;12.13;9.23;;;;;;;13.18;100.00;98443.22;5049279;28;20217;-62
2023/05/05 03:16:45;;;;;;;13.45;9.32;;;;;;;13.00;100.00;98434.25;5049216;28;20618;-63
2023/05/05 03:19:13;;;;;;;11.15;9.43;;;;;;;12.85;100.00;98422.41;5049172;28;20220;-62
2023/05/05 03:21:39;;;;;;;14.20;10.07;;;;;;;12.92;100.00;98444.38;5049218;28;20243;-62
2023/05/05 03:24:18;;;;;;;15.85;10.73;;;;;;;12.43;100.00;98394.56;5049107;28;20206;-62
2023/05/05 03:26:45;;;;;;;17.02;10.30;;;;;;;12.58;100.00;98393.38;5049985;28;20192;-62
2023/05/05 03:29:11;;;;;;;14.90;10.00;;;;;;;12.55;100.00;98398.81;5051201;28;20674;-63
2023/05/05 03:31:37;;;;;;;16.00;10.00;;;;;;;12.89;100.00;98461.00;5049145;28;20584;-62
2023/05/05 03:34:02;;;;;;;17.17;11.30;;;;;;;12.77;100.00;98443.78;5049019;28;20193;-62
2023/05/05 03:36:28;;;;;;;15.48;11.20;;;;;;;12.75;100.00;98431.84;5049019;28;20232;-63
2023/05/05 03:38:54;;;;;;;14.10;10.70;;;;;;;13.02;100.00;98484.31;5049020;28;20189;-62
2023/05/05 03:41:21;;;;;;;17.88;11.68;;;;;;;12.56;100.00;98413.44;5049017;28;20331;-62
2023/05/05 03:43:46;;;;;;;17.48;12.45;;;;;;;12.60;100.00;98433.03;5009009;28;20211;-63
2023/05/05 03:46:12;;;;;;;18.98;11.57;;;;;;;12.83;100.00;98458.88;5009581;28;20661;-62
2023/05/05 03:48:37;;;;;;;17.75;11.88;;;;;;;13.05;100.00;98502.25;5009261;28;20187;-62
2023/05/05 03:51:02;;;;;;;19.17;12.02;;;;;;;12.49;100.00;98430.44;5009270;28;20172;-62
2023/05/05 03:53:28;;;;;;;16.42;11.82;;;;;;;12.75;100.00;98470.78;5009257;28;20226;-62
2023/05/05 03:55:53;;;;;;;16.20;12.02;;;;;;;12.94;100.00;98495.25;5009250;28;20285;-62
2023/05/05 03:58:19;;;;;;;19.15;12.07;;;;;;;12.74;100.00;98493.34;5012319;28;20607;-62
2023/05/05 04:00:44;;;;;;;20.20;12.35;;;;;;;12.54;100.00;98477.63;5012807;28;20183;-62
2023/05/05 04:03:10;;;;;;;15.88;11.90;;;;;;;12.68;100.00;98492.97;5012618;28;20224;-62
2023/05/05 04:05:35;;;;;;;16.70;11.27;;;;;;;12.48;100.00;98457.34;5012769;28;20179;-62
2023/05/05 04:08:02;;;;;;;19.10;12.20;;;;;;;12.85;100.00;98508.09;5014192;28;20186;-62
2023/05/05 04:10:28;;;;;;;15.38;11.63;;;;;;;12.99;100.00;98513.94;5032445;28;20191;-62
2023/05/05 04:12:53;;;;;;;14.40;10.77;;;;;;;13.06;100.00;98514.31;5032386;28;20222;-62
2023/05/05 04:15:19;;;;;;;14.82;10.40;;;;;;;13.09;100.00;98503.66;5048456;28;20221;-62
2023/05/05 04:17:44;;;;;;;13.77;10.70;;;;;;;12.70;100.00;98459.94;5054291;28;20185;-62
2023/05/05 04:20:10;;;;;;;15.95;11.23;;;;;;;12.49;100.00;98426.06;5054594;28;20219;-62
2023/05/05 04:22:35;;;;;;;14.75;11.10;;;;;;;12.61;100.00;98437.28;5054533;28;20189;-61
2023/05/05 04:25:01;;;;;;;14.07;10.07;;;;;;;12.91;100.00;98499.84;5054386;28;20202;-61
2023/05/05 04:27:28;;;;;;;13.75;10.18;;;;;;;12.55;100.00;98446.34;5054395;28;20177;-62
2023/05/05 04:29:54;;;;;;;15.85;9.32;;;;;;;13.02;100.00;98515.47;5054660;28;20201;-61
2023/05/05 04:32:19;;;;;;;10.95;8.73;;;;;;;12.99;100.00;98503.53;5054337;28;20683;-62
2023/05/05 04:34:45;;;;;;;12.65;9.48;;;;;;;12.61;100.00;98435.50;5054199;28;20178;-62
2023/05/05 04:37:11;;;;;;;11.30;9.00;;;;;;;12.69;100.00;98432.31;5054152;28;20648;-62
2023/05/05 04:39:37;;;;;;;10.75;8.55;;;;;;;12.69;100.00;98432.31;5051598;28;20189;-61
2023/05/05 04:42:02;;;;;;;9.05;7.68;;;;;;;13.05;100.00;98504.84;5051689;28;20688;-62
2023/05/05 04:44:28;;;;;;;9.25;7.43;;;;;;;12.66;100.00;98455.94;5051604;28;20220;-62
2023/05/05 04:46:56;;;;;;;8.45;7.00;;;;;;;12.80;100.00;98476.47;5051592;28;20189;-62
2023/05/05 04:49:22;;;;;;;8.52;7.15;;;;;;;12.84;100.00;98462.31;5051450;28;20198;-61
2023/05/05 04:51:47;;;;;;;9.00;7.18;;;;;;;13.03;100.00;98514.53;5051503;28;20269;-62
2023/05/05 04:54:13;;;;;;;9.23;7.00;;;;;;;12.90;100.00;98493.00;5051460;28;20181;-62
2023/05/05 04:56:38;;;;;;;8.43;7.38;;;;;;;12.88;100.00;98474.94;5051455;28;20201;-62
2023/05/05 04:59:03;;;;;;;8.90;7.35;;;;;;;13.03;100.00;98504.13;5051196;28;20730;-62
2023/05/05 05:01:29;;;;;;;9.57;8.07;;;;;;;12.85;100.00;98510.72;5051402;28;20178;-62
2023/05/05 05:03:54;;;;;;;10.50;8.45;;;;;;;12.49;100.00;98441.63;5051289;28;20278;-62
2023/05/05 05:06:20;;;;;;;12.57;8.35;;;;;;;12.76;100.00;98485.44;5051313;28;20610;-62
2023/05/05 05:08:45;;;;;;;9.48;8.05;;;;;;;12.34;100.00;98441.97;5051163;28;20236;-62
2023/05/05 05:11:11;;;;;;;11.13;9.07;;;;;;;12.90;100.00;98512.00;5052735;28;20181;-62
2023/05/05 05:13:36;;;;;;;14.02;9.50;;;;;;;12.97;100.00;98515.00;5050999;28;20182;-62
2023/05/05 05:16:02;;;;;;;11.07;9.02;;;;;;;12.55;100.00;98433.38;5051322;28;20209;-62
2023/05/05 05:18:27;;;;;;;11.55;9.27;;;;;;;13.12;100.00;98524.22;5051057;28;20182;-62
2023/05/05 05:20:53;;;;;;;10.55;8.82;;;;;;;12.88;100.00;98484.50;5050994;28;20209;-62
2023/05/05 05:23:18;;;;;;;11.80;8.90;;;;;;;13.16;100.00;98520.44;5051083;28;20218;-62
2023/05/05 05:25:44;;;;;;;11.52;9.25;;;;;;;13.24;100.00;98512.88;5050857;28;20674;-62
2023/05/05 05:28:10;;;;;;;12.95;8.18;;;;;;;13.15;100.00;98517.03;5050819;28;20178;-62
2023/05/05 05:30:35;;;;;;;11.48;8.52;;;;;;;12.78;100.00;98444.63;5050753;28;20188;-62
2023/05/05 05:33:01;;;;;;;8.80;7.90;;;;;;;12.77;100.00;98446.38;5050680;28;20691;-62
2023/05/05 05:35:26;;;;;;;13.57;9.07;;;;;;;12.90;100.00;98467.03;5050766;28;20193;-62
2023/05/05 05:37:52;;;;;;;11.27;8.15;;;;;;;13.24;100.00;98534.47;5050674;28;20182;-62
2023/05/05 05:40:17;;;;;;;13.65;8.80;;;;;;;13.34;100.00;98525.03;5050405;28;20182;-63
2023/05/05 05:42:43;;;;;;;11.75;8.90;;;;;;;12.93;100.00;98452.03;5050604;28;20668;-63
2023/05/05 05:45:09;;;;;;;8.20;7.40;;;;;;;13.30;100.00;98504.63;5051961;28;20213;-63
2023/05/05 05:47:34;;;;;;;19.77;11.65;;;;;;;13.49;100.00;98538.59;5052900;28;20174;-63
2023/05/05 05:50:00;;;;;;;29.95;14.88;;;;;;;13.40;100.00;98514.16;5052861;28;20227;-63
2023/05/05 05:52:25;;;;;;;14.73;9.32;;;;;;;13.21;100.00;98484.53;5052883;28;20644;-63
2023/05/05 05:54:53;;;;;;;21.23;12.10;;;;;;;13.53;100.00;98537.44;5052742;28;20660;-62
2023/05/05 05:57:21;;;;;;;28.23;13.82;;;;;;;13.67;100.00;98557.97;5052333;28;20170;-61
2023/05/05 05:59:46;;;;;;;12.82;8.75;;;;;;;13.66;100.00;98544.13;5052786;28;20288;-60
2023/05/05 06:02:11;;;;;;;9.57;8.38;;;;;;;13.70;100.00;98542.13;5052594;28;20260;-61
2023/05/05 06:04:37;;;;;;;11.70;9.80;;;;;;;13.27;100.00;98460.66;5052561;28;20579;-61
2023/05/05 06:07:04;;;;;;;23.10;13.68;;;;;;;13.30;100.00;98452.63;5052484;28;20198;-62
2023/05/05 06:09:29;;;;;;;27.90;15.40;;;;;;;13.42;100.00;98455.06;5052527;28;20182;-63
2023/05/05 06:11:54;;;;;;;18.33;11.65;;;;;;;13.86;100.00;98526.94;5052458;28;20245;-63
2023/05/05 06:14:20;;;;;;;16.92;10.73;;;;;;;13.55;100.00;98465.34;5069836;28;20279;-63
2023/05/05 06:16:45;;;;;;;11.75;9.85;;;;;;;13.57;100.00;98468.63;5069916;28;20276;-63
2023/05/05 06:19:10;;;;;;;14.05;9.25;;;;;;;14.21;100.00;98558.78;5069397;28;20181;-63
2023/05/05 06:21:36;;;;;;;10.30;8.95;;;;;;;13.77;100.00;98467.88;5069900;28;20199;-63
2023/05/05 06:24:01;;;;;;;14.15;9.63;;;;;;;14.27;100.00;98542.69;5029154;28;20214;-63
2023/05/05 06:26:27;;;;;;;11.60;9.25;;;;;;;14.05;100.00;98496.72;5029625;28;20349;-63
2023/05/05 06:28:53;;;;;;;12.63;8.68;;;;;;;14.17;100.00;98510.53;5029337;28;20240;-63
2023/05/05 06:31:18;;;;;;;10.80;8.82;;;;;;;14.45;100.00;98546.38;5029569;28;20194;-63
2023/05/05 06:33:44;;;;;;;13.40;8.57;;;;;;;14.36;100.00;98502.91;5029087;28;20281;-63
2023/05/05 06:36:09;;;;;;;10.40;7.78;;;;;;;14.29;100.00;98478.34;5030006;28;20205;-63
2023/05/05 06:38:35;;;;;;;10.13;7.32;;;;;;;14.67;100.00;98528.03;5029655;28;20182;-63
2023/05/05 06:41:00;;;;;;;8.07;7.15;;;;;;;14.36;100.00;98474.28;5029591;28;20191;-63
2023/05/05 06:43:27;;;;;;;10.65;6.60;;;;;;;14.72;100.00;98525.88;5029277;28;20709;-63
2023/05/05 06:45:53;;;;;;;10.23;6.18;;;;;;;14.50;100.00;98466.13;5015053;28;20195;-63
2023/05/05 06:48:19;;;;;;;7.45;5.15;;;;;;;14.77;100.00;98508.94;5009870;28;20563;-63
2023/05/05 06:50:44;;;;;;;8.20;6.60;;;;;;;14.64;100.00;98468.41;5009634;28;20614;-63
2023/05/05 06:53:09;;;;;;;7.95;6.65;;;;;;;15.14;100.00;98546.56;5009106;28;20618;-63
2023/05/05 06:55:35;;;;;;;6.55;5.95;;;;;;;14.69;100.00;98463.66;5004212;28;20282;-63
2023/05/05 06:58:01;;;;;;;6.22;5.63;;;;;;;14.89;100.00;98473.19;5009461;28;20233;-61
2023/05/05 07:00:27;;;;;;;7.25;6.38;;;;;;;15.11;100.00;98501.69;5009574;28;20544;-61
2023/05/05 07:02:52;;;;;;;8.35;6.35;;;;;;;15.13;100.00;98505.81;5009651;28;20183;-61
2023/05/05 07:05:18;;;;;;;6.60;5.88;;;;;;;15.27;100.00;98512.47;5025579;28;20297;-62
2023/05/05 07:07:51;;;;;;;7.38;6.30;;;;;;;15.18;100.00;98461.13;5049157;28;20201;-61
2023/05/05 07:10:16;;;;;;;6.70;6.07;;;;;;;15.27;100.00;98455.94;5049136;28;20276;-62
2023/05/05 07:12:42;;;;;;;6.57;5.88;;;;;;;15.69;100.00;98511.38;5049296;28;20190;-62
2023/05/05 07:15:08;;;;;;;7.50;6.63;;;;;;;15.85;100.00;98537.78;5049033;28;20277;-62
2023/05/05 07:17:33;;;;;;;8.07;6.22;;;;;;;15.62;100.00;98502.47;5028785;28;20194;-61
2023/05/05 07:19:58;;;;;;;9.73;5.57;;;;;;;15.63;100.00;98499.69;5029181;28;20273;-62
2023/05/05 07:22:24;;;;;;;7.38;5.70;;;;;;;16.07;100.00;98542.75;5029073;28;20599;-61
2023/05/05 07:24:52;;;;;;;10.10;6.50;;;;;;;15.61;100.00;98465.09;5028934;28;20586;-62
2023/05/05 07:27:18;;;;;;;8.82;6.53;;;;;;;16.27;100.00;98557.47;5044713;28;20240;-61
2023/05/05 07:29:43;;;;;;;6.13;5.53;;;;;;;16.04;100.00;98475.16;5048318;28;20177;-61
2023/05/05 07:32:08;;;;;;;9.73;6.32;;;;;;;16.50;100.00;98523.13;5050339;28;20185;-61
2023/05/05 07:34:36;;;;;;;8.38;5.55;;;;;;;16.55;100.00;98496.63;5052978;28;20184;-61
2023/05/05 07:37:02;;;;;;;8.93;5.68;;;;;;;17.00;100.00;98544.63;5052741;28;20220;-62
2023/05/05 07:39:28;;;;;;;9.60;5.53;;;;;;;16.99;100.00;98517.69;5052751;28;20174;-62
2023/05/05 07:41:53;;;;;;;6.00;5.30;;;;;;;17.45;100.00;98551.69;5052910;28;20185;-62
2023/05/05 07:44:19;;;;;;;5.45;4.82;;;;;;;17.56;100.00;98554.09;5052208;28;20639;-62
2023/05/05 07:46:44;;;;;;;5.55;4.68;;;;;;;17.62;100.00;98550.09;5052652;28;20266;-62
2023/05/05 07:49:10;;;;;;;8.43;5.07;;;;;;;17.42;100.00;98540.66;5054117;28;20181;-62
2023/05/05 07:51:36;;;;;;;7.30;4.68;;;;;;;17.37;100.00;98520.16;5054895;28;20210;-62
2023/05/05 07:54:01;;;;;;;5.43;4.30;;;;;;;17.67;100.00;98551.28;5054819;28;20181;-62
2023/05/05 07:56:27;;;;;;;4.68;3.97;;;;;;;17.24;100.00;98479.59;5054801;28;20180;-62
2023/05/05 07:58:53;;;;;;;4.65;4.25;;;;;;;17.27;100.00;98479.31;5054930;28;20196;-62
2023/05/05 08:01:18;;;;;;;7.75;4.78;;;;;;;17.29;100.00;98477.38;5054950;28;20177;-62
2023/05/05 08:03:44;;;;;;;4.32;3.92;;;;;;;17.41;100.00;98489.31;5054823;28;20749;-62
2023/05/05 08:06:09;;;;;;;3.63;3.42;;;;;;;17.91;100.00;98556.00;5054819;28;20223;-62
2023/05/05 08:08:35;;;;;;;4.30;3.53;;;;;;;17.91;100.00;98543.75;5054635;28;20165;-62
2023/05/05 08:11:00;;;;;;;4.80;4.40;;;;;;;17.68;100.00;98502.41;5053790;28;20256;-62
2023/05/05 08:13:27;;;;;;;7.38;4.25;;;;;;;18.07;100.00;98569.25;5054762;28;20200;-62
2023/05/05 08:15:52;;;;;;;5.22;4.50;;;;;;;18.05;100.00;98571.19;5054551;28;20652;-62
2023/05/05 08:18:18;;;;;;;5.60;4.30;;;;;;;18.04;100.00;98554.66;5054562;28;20179;-62
2023/05/05 08:20:43;;;;;;;4.63;4.20;;;;;;;17.74;100.00;98492.19;5054433;28;20635;-62
2023/05/05 08:23:09;;;;;;;4.22;3.83;;;;;;;17.89;100.00;98501.16;5054306;28;20687;-62
2023/05/05 08:25:34;;;;;;;4.50;4.10;;;;;;;18.32;100.00;98558.09;5054485;28;20173;-62
2023/05/05 08:28:00;;;;;;;5.38;4.75;;;;;;;17.94;100.00;98492.84;5054445;28;20180;-62
2023/05/05 08:30:26;;;;;;;5.35;4.03;;;;;;;18.12;100.00;98494.50;5054364;28;20205;-62
2023/05/05 08:32:51;;;;;;;5.10;4.63;;;;;;;18.25;100.00;98496.75;5054251;28;20206;-62
2023/05/05 08:35:16;;;;;;;5.28;3.90;;;;;;;18.54;100.00;98541.91;5054110;28;20185;-62
2023/05/05 08:37:42;;;;;;;4.32;3.92;;;;;;;18.62;100.00;98540.19;5053750;28;20177;-62
2023/05/05 08:40:11;;;;;;;4.82;4.30;;;;;;;18.87;100.00;98570.00;5053808;28;20268;-62
2023/05/05 08:42:36;;;;;;;4.63;4.20;;;;;;;18.35;100.00;98532.41;5053031;28;20721;-62
2023/05/05 08:45:02;;;;;;;5.00;4.10;;;;;;;18.47;100.00;98561.84;5053993;28;20291;-62
2023/05/05 08:47:27;;;;;;;4.63;4.20;;;;;;;18.54;100.00;98552.41;5054325;28;20256;-62
2023/05/05 08:49:55;;;;;;;4.53;4.13;;;;;;;18.79;100.00;98562.94;5054057;28;20177;-62
2023/05/05 08:52:22;;;;;;;4.03;3.72;;;;;;;18.69;100.00;98509.75;5053760;28;20166;-62
2023/05/05 08:55:05;;;;;;;4.70;3.85;;;;;;;19.15;100.00;98579.38;5054029;28;20216;-62
2023/05/05 08:57:50;;;;;;;6.13;3.45;;;;;;;19.05;84.06;98552.47;5053839;28;20172;-63
2023/05/05 09:00:18;;;;;;;4.97;3.38;;;;;;;18.97;81.21;98534.03;5053930;28;20169;-63
2023/05/05 09:02:44;;;;;;;6.82;3.53;;;;;;;19.00;80.87;98552.91;5053873;28;20173;-63
2023/05/05 09:05:10;;;;;;;4.65;4.05;;;;;;;19.08;79.48;98571.34;5053600;28;20201;-63
2023/05/05 09:07:36;;;;;;;6.78;3.70;;;;;;;18.66;80.36;98499.56;5053961;28;20555;-63
2023/05/05 09:10:04;;;;;;;3.58;3.22;;;;;;;18.63;78.78;98494.66;5053546;28;20227;-63
2023/05/05 09:12:30;;;;;;;3.58;3.28;;;;;;;18.57;78.87;98497.03;5052886;28;20614;-62
2023/05/05 09:14:55;;;;;;;13.00;3.88;;;;;;;19.01;78.36;98564.22;5052788;28;20173;-62
2023/05/05 09:17:23;;;;;;;4.88;3.10;;;;;;;19.01;76.63;98572.09;5052749;28;20173;-62
2023/05/05 09:20:05;;;;;;;3.90;3.60;;;;;;;19.09;75.89;98572.13;5050923;28;20280;-64
2023/05/05 09:22:45;;;;;;;3.92;3.25;;;;;;;18.74;76.16;98517.16;5050839;28;20261;-62
2023/05/05 09:25:16;;;;;;;6.60;3.13;;;;;;;18.97;74.86;98532.25;5050946;28;20569;-62
2023/05/05 09:27:44;;;;;;;3.88;3.58;;;;;;;19.02;76.89;98531.78;5050977;28;20188;-62
2023/05/05 09:30:15;;;;;;;3.78;3.40;;;;;;;19.19;75.82;98555.34;5050748;28;20227;-62
2023/05/05 09:32:48;;;;;;;4.03;3.70;;;;;;;19.29;77.18;98568.38;5050685;28;20265;-62
2023/05/05 09:35:14;;;;;;;4.00;3.28;;;;;;;19.16;75.67;98565.28;5050331;28;20250;-63
2023/05/05 09:37:40;;;;;;;3.50;2.78;;;;;;;19.00;76.11;98554.72;5050524;28;20216;-63
2023/05/05 09:40:08;;;;;;;4.80;2.85;;;;;;;18.85;73.43;98514.28;5050432;28;20209;-63
2023/05/05 09:42:35;;;;;;;3.80;3.50;;;;;;;19.01;74.27;98509.16;5050499;28;20247;-63
2023/05/05 09:45:01;;;;;;;3.60;3.10;;;;;;;19.22;74.37;98534.06;5050433;28;20273;-63
2023/05/05 09:47:34;;;;;;;4.13;3.40;;;;;;;19.31;74.22;98519.19;5050574;28;20181;-62
2023/05/05 09:50:00;;;;;;;3.95;3.45;;;;;;;19.04;72.27;98466.84;5049979;28;20200;-62
2023/05/05 09:52:25;;;;;;;3.20;2.90;;;;;;;19.17;70.49;98483.00;5051555;28;20399;-62
2023/05/05 09:54:55;;;;;;;4.18;3.20;;;;;;;19.52;69.79;98537.97;5029467;28;20236;-62
2023/05/05 09:57:33;;;;;;;5.20;3.38;;;;;;;19.06;72.53;98494.56;5030434;28;20193;-62
2023/05/05 10:00:01;;;;;;;4.72;3.00;;;;;;;18.92;73.90;98495.16;5030397;28;20190;-62
2023/05/05 10:02:31;;;;;;;4.65;2.90;;;;;;;18.81;74.37;98455.25;5030387;28;20216;-62
2023/05/05 10:05:11;;;;;;;3.53;3.05;;;;;;;18.90;71.52;98460.41;5030060;28;20214;-62
2023/05/05 10:07:38;;;;;;;3.78;3.30;;;;;;;19.17;72.60;98489.06;5030211;28;20181;-62
2023/05/05 10:10:06;;;;;;;3.90;3.38;;;;;;;19.48;72.12;98524.31;5030196;28;20197;-62
2023/05/05 10:12:34;;;;;;;3.65;3.05;;;;;;;19.43;71.41;98489.03;5030179;28;20195;-62
2023/05/05 10:15:01;;;;;;;6.88;3.55;;;;;;;19.48;70.41;98471.03;5030117;28;20194;-62
2023/05/05 10:17:30;;;;;;;6.28;3.30;;;;;;;19.95;71.55;98522.03;5030067;28;20178;-63
2023/05/05 10:19:56;;;;;;;3.42;3.13;;;;;;;19.82;69.11;98475.22;5030071;28;20181;-62
2023/05/05 10:22:22;;;;;;;3.35;2.72;;;;;;;19.91;69.09;98473.44;5030032;28;20185;-63
2023/05/05 10:25:12;;;;;;;3.88;3.22;;;;;;;20.34;68.83;98523.13;5031428;28;20206;-63
2023/05/05 10:27:49;;;;;;;3.25;2.97;;;;;;;19.78;66.25;98444.19;5052209;28;20173;-63
2023/05/05 10:30:31;;;;;;;3.33;3.03;;;;;;;19.92;67.59;98468.03;5052264;28;20208;-62
2023/05/05 10:33:18;;;;;;;3.60;3.30;;;;;;;20.30;65.70;98509.50;5052134;28;20256;-62
2023/05/05 10:35:48;;;;;;;4.95;3.38;;;;;;;20.52;64.96;98506.19;5052183;28;20672;-63
2023/05/05 10:38:15;;;;;;;4.78;2.78;;;;;;;20.48;65.61;98501.44;5052097;28;20177;-63
2023/05/05 10:40:44;;;;;;;3.47;3.15;;;;;;;20.58;65.07;98499.47;5052087;28;20199;-63
2023/05/05 10:43:10;;;;;;;3.90;3.03;;;;;;;20.50;66.58;98460.00;5052242;28;20181;-62
2023/05/05 10:45:36;;;;;;;3.33;3.03;;;;;;;20.54;64.85;98440.31;5052056;28;20272;-63
2023/05/05 10:48:07;;;;;;;3.40;3.10;;;;;;;21.05;63.95;98488.06;5051979;28;20215;-63
2023/05/05 10:50:37;;;;;;;3.50;3.20;;;;;;;21.36;61.90;98496.03;5051993;28;20173;-62
2023/05/05 10:53:20;;;;;;;4.50;3.30;;;;;;;21.27;63.09;98504.97;5051890;28;20169;-62
2023/05/05 10:55:58;;;;;;;3.15;2.88;;;;;;;21.09;64.01;98501.72;5051934;28;20260;-63
2023/05/05 10:58:42;;;;;;;4.10;3.47;;;;;;;21.05;62.56;98492.53;5051588;28;20195;-63
2023/05/05 11:01:08;;;;;;;3.65;3.42;;;;;;;20.26;64.28;98415.34;5051570;28;20734;-63
2023/05/05 11:03:34;;;;;;;5.78;3.30;;;;;;;20.48;65.59;98452.31;5051655;28;20275;-63
2023/05/05 11:06:02;;;;;;;3.78;3.40;;;;;;;20.52;66.29;98485.16;5054483;28;20604;-63
2023/05/05 11:08:27;;;;;;;4.15;3.20;;;;;;;20.18;67.28;98415.38;5058396;28;20173;-62
2023/05/05 11:10:53;;;;;;;3.55;3.30;;;;;;;20.65;65.46;98492.56;5058386;28;20183;-63
2023/05/05 11:13:19;;;;;;;3.75;3.17;;;;;;;20.34;66.05;98481.06;5058352;28;20644;-63
2023/05/05 11:15:44;;;;;;;3.35;3.15;;;;;;;20.24;67.55;98454.13;5058304;28;20610;-63
2023/05/05 11:18:37;;;;;;;6.20;3.53;;;;;;;20.45;66.81;98483.38;5058278;28;20172;-63
2023/05/05 11:21:06;;;;;;;6.20;3.20;;;;;;;20.17;68.02;98429.50;5058246;28;20643;-62
2023/05/05 11:23:32;;;;;;;3.38;3.17;;;;;;;20.28;67.73;98437.06;5058165;28;20197;-62
2023/05/05 11:25:57;;;;;;;4.85;3.45;;;;;;;20.03;66.77;98401.19;5058202;28;20199;-63